Santo Pipo, Argentina
Current Conditions -  °F | °C
As of 2:00 AM on Sunday 23 Nov 2014 (Local Time) from SARP Reporting Station
Clear Clear  
Wind Chill: 68°   Ceiling: Unl
Heat Index: 68°   Visibility: 6mi
Dew Point: 55°   Wind: 7mph
Humidity: 64%   Direction: 160°SSE
Pressure: 29.94"   Gusts: NA
Location:  27.13°S, 55.42°W
Report Text: SARP 230500Z 16006KT CAVOK 20/13 Q1014
Loading
Personal Weather Stations






























Interactive Weather Map New forecast layout! Learn more

10-Day Weather Forecast

Advertisements
Track Severe Weather on mobile